San Jose, CA

7:54 PM PDT on May 04, 2015 (GMT -0700)
North San Jose / 680 & Hostetter | | Change Station
CLOSE
Current Station
Personal Weather Station
Location: San Jose, CA
Elevation: 85 ft
Nearby Weather Stations

Elev 85 ft 37.39 °N, 121.88 °W | Updated 1 minute ago

Clear
Clear
55.5 °F
Feels Like 55.5 °F
N
3.0
Wind Variable Wind from North
Gusts 3.0 mph

Today
High -- | Low -- °F
--% Chance of Precip.
Yesterday
High -- | Low -- °F
Precip. -- in
6:09 AM 7:59 PM
Full, 99% visible
Pressure 29.96 in
Visibility 10.0 miles
Clouds Few 1300 ft
Dew Point 48 °F
Humidity 75%
Rainfall 0.00 in
Snow Depth Not available.
UV 1 out of 12
Pollen 5.80 out of 12
Air Quality Not available.
Flu Activity Sporadic
METAR KSJC 050153Z 31015KT 10SM FEW013 14/08 A2996 RMK AO2 SLP143 T01440078

More Conditions Fewer Conditions

Pressure 29.96 in
Visibility 10.0 miles
Clouds Few 1300 ft
Dew Point 48 °F
Humidity 75%
Rainfall 0.00 in
Snow Depth Not available.
UV 1 out of 12
Pollen 5.80 out of 12
Air Quality Not available.
Flu Activity Sporadic
METAR KSJC 050153Z 31015KT 10SM FEW013 14/08 A2996 RMK AO2 SLP143 T01440078

More Conditions Fewer Conditions

Nepal has a long way to go to dig out and rebuild from a devastating earthquake. We have teamed up with several charities and organizations to make contributing to the relief effort as easy as possible.
How you can help: Portlight Strategies | Red Cross

10-Day Weather Forecast

Almanac

Astronomy

May. 04, 2015 Rise Set
Actual Time
Civil Twilight
Nautical Twilight
Astronomical Twilight
Moon
Length of Visible Light
Length of Day
Tomorrow will be .
, % of the Moon is Illuminated

Today's Extremes

State Highs State Lows

Community

WunderPhotos

Upload Photos

1,818,793 photos uploaded!

WunderBlogs® & News

Nearby

Air Quality

  Air Quality AQ Index Pollutant
Not available.

Snow Depth

Station Depth Elevation

Earthquake Activity

City Distance Mag. Time & Date
Minimum magnitude displayed is 2.5.

Coastal Water Temperatures

Place Temperature

Stations

Nearby Weather Stations

Station Location Temp. Windchill Dew Point Humidity Wind Precip. Elev Updated Type